createdAt,value
2019-05-05T00:01:16.360Z,67.14
2019-05-05T00:03:49.890Z,67.25
2019-05-05T00:06:17.531Z,67.28
2019-05-05T00:08:45.768Z,67.25
2019-05-05T00:11:25.954Z,66.95
2019-05-05T00:14:04.742Z,66.75
2019-05-05T00:16:42.063Z,66.62
2019-05-05T00:19:09.724Z,66.75
2019-05-05T00:21:37.381Z,67.03
2019-05-05T00:24:05.027Z,66.99
2019-05-05T00:26:34.800Z,66.82
2019-05-05T00:29:04.220Z,66.71
2019-05-05T00:31:31.416Z,67.13
2019-05-05T00:33:59.084Z,67.21
2019-05-05T00:36:26.743Z,66.93
2019-05-05T00:38:55.257Z,66.95
2019-05-05T00:41:25.192Z,67.01
2019-05-05T00:43:52.492Z,67.11
2019-05-05T00:46:27.840Z,67.07
2019-05-05T00:48:55.504Z,66.82
2019-05-05T00:51:24.472Z,66.76
2019-05-05T00:53:52.300Z,67.17
2019-05-05T00:56:19.947Z,67.43
2019-05-05T00:58:55.213Z,67.74
2019-05-05T01:01:27.882Z,67.85
2019-05-05T01:03:55.720Z,67.75
2019-05-05T01:06:26.092Z,67.38
2019-05-05T01:08:54.999Z,67.38
2019-05-05T01:11:24.963Z,67.51
2019-05-05T01:13:52.148Z,67.53
2019-05-05T01:16:19.809Z,67.36
2019-05-05T01:18:47.462Z,67.22
2019-05-05T01:21:15.185Z,67.16
2019-05-05T01:23:42.860Z,67.16
2019-05-05T01:26:10.670Z,67.06
2019-05-05T01:28:38.325Z,67.04
2019-05-05T01:31:10.687Z,67.15
2019-05-05T01:33:48.145Z,67.18
2019-05-05T01:36:15.798Z,67.07
2019-05-05T01:38:50.204Z,66.85
2019-05-05T01:41:25.899Z,66.87
2019-05-05T01:43:54.214Z,66.69
2019-05-05T01:46:22.101Z,66.61
2019-05-05T01:48:49.754Z,66.79
2019-05-05T01:51:17.410Z,66.93
2019-05-05T01:53:45.075Z,67.00
2019-05-05T01:56:12.744Z,67.22
2019-05-05T01:58:40.392Z,67.35
2019-05-05T02:01:08.060Z,67.04
2019-05-05T02:03:35.716Z,66.83
2019-05-05T02:06:05.261Z,66.82
2019-05-05T02:08:34.715Z,66.75
2019-05-05T02:11:02.104Z,66.73
2019-05-05T02:13:29.748Z,66.71
2019-05-05T02:15:57.416Z,66.74
2019-05-05T02:18:25.416Z,66.73
2019-05-05T02:20:54.331Z,67.08
2019-05-05T02:23:22.249Z,67.28
2019-05-05T02:25:50.484Z,67.22
2019-05-05T02:28:18.141Z,67.38
2019-05-05T02:30:55.040Z,67.32
2019-05-05T02:33:25.934Z,67.29
2019-05-05T02:35:55.411Z,67.13
2019-05-05T02:38:22.029Z,67.04
2019-05-05T02:40:49.687Z,67.00
2019-05-05T02:43:17.351Z,67.01
2019-05-05T02:45:46.278Z,66.93
2019-05-05T02:48:15.660Z,66.78
2019-05-05T02:50:55.940Z,66.97
2019-05-05T02:53:18.142Z,67.07
2019-05-05T02:55:45.805Z,66.91
2019-05-05T02:58:14.030Z,66.67
2019-05-05T03:01:00.841Z,66.56
2019-05-05T03:03:28.504Z,66.64
2019-05-05T03:05:56.159Z,66.77
2019-05-05T03:08:24.282Z,66.75
2019-05-05T03:10:53.602Z,66.76
2019-05-05T03:13:21.335Z,66.71
2019-05-05T03:15:49.023Z,66.75
2019-05-05T03:18:16.704Z,66.79
2019-05-05T03:20:44.389Z,66.55
2019-05-05T03:23:13.612Z,66.54
2019-05-05T03:25:41.512Z,66.79
2019-05-05T03:28:09.172Z,66.88
2019-05-05T03:30:36.851Z,67.01
2019-05-05T03:33:05.541Z,67.20
2019-05-05T03:35:34.574Z,67.42
2019-05-05T03:38:03.883Z,67.25
2019-05-05T03:40:34.384Z,67.04
2019-05-05T03:43:08.265Z,66.90
2019-05-05T03:45:45.488Z,66.93
2019-05-05T03:48:13.616Z,66.95
2019-05-05T03:50:41.395Z,66.77
2019-05-05T03:53:09.052Z,66.53
2019-05-05T03:55:36.715Z,66.61
2019-05-05T03:58:04.363Z,66.78
2019-05-05T04:00:33.970Z,66.79
2019-05-05T04:03:07.249Z,66.55
2019-05-05T04:05:39.577Z,66.33
2019-05-05T04:08:07.246Z,66.28
2019-05-05T04:10:34.896Z,66.08
2019-05-05T04:13:04.591Z,65.90
2019-05-05T04:15:33.706Z,65.10
2019-05-05T04:18:07.985Z,64.86
2019-05-05T04:20:38.249Z,64.95
2019-05-05T04:23:05.904Z,64.89
2019-05-05T04:25:34.997Z,64.37
2019-05-05T04:28:04.406Z,64.57
2019-05-05T04:30:33.804Z,64.40
2019-05-05T04:33:03.663Z,63.83
2019-05-05T04:35:31.066Z,63.65
2019-05-05T04:37:58.734Z,63.76
2019-05-05T04:40:26.384Z,63.76
2019-05-05T04:42:54.710Z,63.43
2019-05-05T04:45:24.056Z,63.10
2019-05-05T04:47:55.989Z,63.66
2019-05-05T04:50:32.023Z,62.92
2019-05-05T04:53:00.864Z,61.98
2019-05-05T04:55:28.527Z,59.90
2019-05-05T04:57:56.185Z,59.24
2019-05-05T05:00:24.216Z,58.93
2019-05-05T05:03:13.434Z,59.40
2019-05-05T05:05:46.476Z,58.71
2019-05-05T05:08:14.156Z,58.30
2019-05-05T05:10:43.683Z,58.31
2019-05-05T05:13:11.160Z,57.51
2019-05-05T05:15:38.828Z,56.70
2019-05-05T05:18:14.738Z,56.19
2019-05-05T05:20:44.273Z,57.54
2019-05-05T05:23:13.970Z,57.58
2019-05-05T05:25:43.694Z,58.62
2019-05-05T05:28:10.843Z,58.46
2019-05-05T05:30:38.504Z,58.90
2019-05-05T05:33:06.157Z,57.43
2019-05-05T05:35:33.807Z,58.38
2019-05-05T05:38:01.480Z,57.98
2019-05-05T05:40:39.759Z,58.14
2019-05-05T05:43:09.972Z,58.39
2019-05-05T05:45:45.057Z,58.21
2019-05-05T05:48:17.835Z,58.79
2019-05-05T05:50:49.575Z,58.36
2019-05-05T05:53:17.232Z,57.38
2019-05-05T05:55:44.939Z,55.72
2019-05-05T05:58:14.096Z,54.79
2019-05-05T06:00:44.095Z,53.10
2019-05-05T06:03:11.380Z,53.56
2019-05-05T06:05:39.044Z,53.31
2019-05-05T06:08:06.721Z,52.38
2019-05-05T06:10:34.516Z,52.84
2019-05-05T06:13:04.009Z,53.30
2019-05-05T06:15:33.591Z,52.76
2019-05-05T06:18:00.927Z,51.37
2019-05-05T06:20:28.722Z,49.45
2019-05-05T06:22:56.415Z,47.89
2019-05-05T06:25:26.714Z,47.91
2019-05-05T06:27:54.044Z,48.19
2019-05-05T06:30:21.897Z,48.85
2019-05-05T06:32:51.359Z,49.12
2019-05-05T06:35:19.050Z,47.59
2019-05-05T06:37:53.963Z,48.10
2019-05-05T06:40:23.638Z,47.81
2019-05-05T06:42:59.409Z,47.53
2019-05-05T06:45:34.525Z,46.24
2019-05-05T06:48:04.190Z,45.33
2019-05-05T06:50:31.559Z,45.56
2019-05-05T06:52:59.214Z,45.82
2019-05-05T06:55:26.875Z,45.91
2019-05-05T06:57:54.672Z,44.33
2019-05-05T07:00:24.081Z,43.89
2019-05-05T07:02:53.935Z,44.92
2019-05-05T07:05:21.347Z,45.93
2019-05-05T07:07:49.139Z,48.08
2019-05-05T07:10:16.813Z,44.42
2019-05-05T07:12:44.476Z,44.87
2019-05-05T07:15:14.357Z,43.88
2019-05-05T07:17:41.552Z,44.79
2019-05-05T07:20:09.211Z,44.61
2019-05-05T07:22:37.276Z,46.46
2019-05-05T07:25:05.052Z,48.47
2019-05-05T07:27:33.809Z,50.53
2019-05-05T07:30:01.945Z,51.65
2019-05-05T07:32:29.833Z,49.71
2019-05-05T07:35:14.709Z,50.85
2019-05-05T07:37:43.686Z,50.20
2019-05-05T07:40:13.433Z,51.44
2019-05-05T07:42:40.848Z,51.93
2019-05-05T07:45:21.808Z,51.48
2019-05-05T07:47:37.868Z,52.15
2019-05-05T07:50:05.526Z,52.74
2019-05-05T07:52:34.407Z,52.44
2019-05-05T07:55:03.598Z,50.96
2019-05-05T07:57:31.504Z,51.14
2019-05-05T07:59:59.160Z,51.24
2019-05-05T08:02:26.844Z,50.36
2019-05-05T08:04:54.594Z,49.11
2019-05-05T08:07:24.018Z,49.64
2019-05-05T08:09:53.586Z,49.29
2019-05-05T08:12:21.080Z,51.05
2019-05-05T08:14:48.803Z,51.20
2019-05-05T08:17:30.827Z,50.41
2019-05-05T08:20:04.021Z,51.00
2019-05-05T08:22:33.877Z,49.00
2019-05-05T08:25:08.665Z,48.20
2019-05-05T08:27:45.702Z,47.33
2019-05-05T08:30:21.511Z,47.49
2019-05-05T08:32:49.518Z,46.30
2019-05-05T08:35:17.202Z,47.24
2019-05-05T08:37:45.023Z,45.57
2019-05-05T08:40:14.780Z,43.61
2019-05-05T08:42:44.383Z,42.66
2019-05-05T08:45:13.677Z,41.89
2019-05-05T08:47:40.950Z,41.32
2019-05-05T08:50:08.616Z,42.39
2019-05-05T08:52:36.264Z,41.59
2019-05-05T08:55:04.704Z,41.62
2019-05-05T08:57:34.098Z,40.91
2019-05-05T09:00:01.905Z,40.54
2019-05-05T09:02:32.822Z,42.15
2019-05-05T09:04:59.068Z,40.94
2019-05-05T09:07:26.723Z,40.07
2019-05-05T09:09:54.745Z,38.73
2019-05-05T09:12:23.595Z,39.67
2019-05-05T09:14:53.736Z,38.39
2019-05-05T09:17:20.883Z,40.84
2019-05-05T09:19:48.564Z,39.60
2019-05-05T09:22:16.285Z,40.43
2019-05-05T09:24:53.669Z,39.64
2019-05-05T09:27:28.303Z,37.61
2019-05-05T09:29:55.961Z,37.91
2019-05-05T09:32:24.305Z,39.99
2019-05-05T09:34:54.033Z,39.32
2019-05-05T09:37:21.642Z,39.48
2019-05-05T09:39:49.338Z,38.02
2019-05-05T09:42:17.003Z,39.07
2019-05-05T09:44:44.669Z,39.32
2019-05-05T09:47:13.632Z,38.58
2019-05-05T09:49:41.640Z,38.23
2019-05-05T09:52:09.317Z,37.50
2019-05-05T09:54:36.980Z,37.08
2019-05-05T09:57:04.847Z,35.80
2019-05-05T09:59:34.566Z,34.74
2019-05-05T10:02:04.256Z,35.81
2019-05-05T10:04:32.272Z,37.66
2019-05-05T10:06:59.940Z,38.72
2019-05-05T10:09:27.587Z,38.19
2019-05-05T10:11:55.253Z,36.65
2019-05-05T10:14:22.932Z,36.06
2019-05-05T10:16:50.604Z,36.75
2019-05-05T10:19:18.291Z,36.73
2019-05-05T10:21:46.086Z,36.01
2019-05-05T10:24:28.679Z,36.20
2019-05-05T10:26:51.496Z,36.13
2019-05-05T10:29:19.160Z,37.29
2019-05-05T10:31:46.828Z,36.74
2019-05-05T10:34:16.297Z,36.46
2019-05-05T10:36:44.284Z,37.23
2019-05-05T10:39:18.787Z,37.70
2019-05-05T10:41:46.449Z,37.94
2019-05-05T10:44:14.208Z,35.64
2019-05-05T10:46:42.319Z,36.31
2019-05-05T10:49:10.085Z,37.01
2019-05-05T10:51:37.758Z,36.13
2019-05-05T10:54:05.415Z,35.54
2019-05-05T10:56:34.551Z,37.07
2019-05-05T10:59:03.932Z,36.04
2019-05-05T11:01:31.963Z,35.28
2019-05-05T11:03:59.624Z,31.68
2019-05-05T11:06:27.287Z,32.38
2019-05-05T11:08:54.963Z,34.97
2019-05-05T11:11:23.867Z,35.15
2019-05-05T11:13:51.671Z,36.69
2019-05-05T11:16:19.332Z,37.37
2019-05-05T11:18:47.000Z,37.95
2019-05-05T11:21:14.675Z,37.66
2019-05-05T11:23:44.630Z,37.89
2019-05-05T11:26:11.800Z,37.96
2019-05-05T11:28:41.167Z,37.49
2019-05-05T11:31:08.823Z,38.60
2019-05-05T11:33:43.897Z,36.67
2019-05-05T11:36:16.881Z,35.32
2019-05-05T11:38:44.779Z,34.97
2019-05-05T11:41:14.360Z,35.71
2019-05-05T11:43:41.981Z,34.79
2019-05-05T11:46:09.727Z,34.25
2019-05-05T11:48:37.496Z,35.86
2019-05-05T11:51:05.163Z,36.80
2019-05-05T11:53:33.979Z,36.11
2019-05-05T11:56:04.010Z,36.21
2019-05-05T11:58:31.582Z,36.33
2019-05-05T12:01:01.027Z,36.05
2019-05-05T12:03:28.821Z,36.58
2019-05-05T12:05:56.564Z,36.71
2019-05-05T12:08:26.150Z,35.62
2019-05-05T12:10:57.035Z,34.95
2019-05-05T12:13:24.775Z,34.46
2019-05-05T12:15:58.993Z,34.16
2019-05-05T12:18:26.666Z,34.88
2019-05-05T12:20:54.517Z,36.94
2019-05-05T12:23:22.277Z,35.21
2019-05-05T12:25:59.320Z,35.58
2019-05-05T12:28:34.540Z,34.67
2019-05-05T12:31:04.104Z,35.99
2019-05-05T12:33:33.529Z,36.46
2019-05-05T12:36:01.179Z,36.27
2019-05-05T12:38:29.087Z,34.86
2019-05-05T12:40:56.739Z,34.23
2019-05-05T12:43:24.731Z,34.23
2019-05-05T12:45:59.765Z,34.83
2019-05-05T12:48:31.464Z,35.38
2019-05-05T12:50:59.124Z,34.29
2019-05-05T12:53:26.787Z,33.79
2019-05-05T12:55:54.445Z,34.05
2019-05-05T12:58:22.103Z,33.58
2019-05-05T13:01:00.684Z,32.44
2019-05-05T13:03:28.353Z,32.73
2019-05-05T13:05:56.121Z,32.12
2019-05-05T13:08:23.792Z,33.85
2019-05-05T13:10:53.047Z,32.22
2019-05-05T13:13:20.864Z,33.28
2019-05-05T13:15:48.531Z,34.81
2019-05-05T13:18:16.192Z,35.18
2019-05-05T13:20:53.754Z,36.13
2019-05-05T13:23:33.953Z,35.56
2019-05-05T13:26:07.688Z,36.73
2019-05-05T13:28:35.353Z,36.75
2019-05-05T13:31:04.677Z,36.17
2019-05-05T13:33:33.649Z,36.58
2019-05-05T13:36:01.923Z,37.33
2019-05-05T13:38:30.168Z,37.86
2019-05-05T13:40:57.847Z,38.37
2019-05-05T13:43:25.620Z,39.03
2019-05-05T13:46:02.270Z,38.23
2019-05-05T13:48:29.928Z,39.12
2019-05-05T13:51:00.297Z,38.73
2019-05-05T13:53:27.943Z,38.92
2019-05-05T13:56:08.167Z,37.07
2019-05-05T13:58:24.996Z,37.00
2019-05-05T14:00:54.527Z,36.36
2019-05-05T14:03:23.511Z,36.15
2019-05-05T14:05:51.361Z,36.70
2019-05-05T14:08:19.023Z,37.42
2019-05-05T14:10:46.686Z,35.68
2019-05-05T14:13:15.226Z,36.35
2019-05-05T14:15:44.051Z,35.61
2019-05-05T14:18:11.840Z,35.71
2019-05-05T14:20:39.544Z,34.07
2019-05-05T14:23:07.280Z,33.43
2019-05-05T14:25:34.947Z,32.98
2019-05-05T14:28:03.772Z,33.28
2019-05-05T14:30:43.501Z,32.38
2019-05-05T14:33:15.929Z,31.92
2019-05-05T14:35:54.079Z,32.84
2019-05-05T14:38:26.344Z,33.30
2019-05-05T14:40:54.017Z,34.59
2019-05-05T14:43:21.672Z,36.22
2019-05-05T14:45:49.925Z,36.63
2019-05-05T14:48:17.588Z,36.78
2019-05-05T14:50:45.253Z,37.13
2019-05-05T14:53:14.515Z,36.91
2019-05-05T14:55:44.081Z,38.16
2019-05-05T14:58:11.658Z,37.35
2019-05-05T15:00:39.571Z,37.45
2019-05-05T15:03:07.280Z,37.17
2019-05-05T15:05:41.208Z,37.44
2019-05-05T15:08:16.440Z,36.68
2019-05-05T15:10:54.704Z,37.38
2019-05-05T15:13:24.259Z,36.70
2019-05-05T15:15:53.956Z,37.05
2019-05-05T15:18:23.971Z,37.90
2019-05-05T15:20:51.854Z,37.68
2019-05-05T15:23:19.658Z,37.86
2019-05-05T15:25:47.388Z,37.61
2019-05-05T15:28:15.051Z,37.45
2019-05-05T15:30:44.094Z,37.11
2019-05-05T15:33:13.659Z,37.19
2019-05-05T15:35:43.771Z,36.64
2019-05-05T15:38:10.671Z,37.13
2019-05-05T15:40:38.437Z,37.70
2019-05-05T15:43:06.092Z,36.68
2019-05-05T15:45:34.096Z,37.77
2019-05-05T15:48:01.897Z,37.46
2019-05-05T15:50:29.591Z,36.61
2019-05-05T15:52:57.416Z,36.48
2019-05-05T15:55:25.070Z,36.64
2019-05-05T15:57:52.738Z,36.91
2019-05-05T16:00:20.396Z,36.64
2019-05-05T16:02:48.060Z,37.05
2019-05-05T16:05:15.767Z,36.47
2019-05-05T16:07:43.997Z,37.89
2019-05-05T16:10:13.624Z,37.54
2019-05-05T16:12:41.459Z,38.17
2019-05-05T16:15:20.804Z,38.37
2019-05-05T16:18:08.167Z,37.94
2019-05-05T16:20:39.144Z,37.92
2019-05-05T16:23:14.800Z,37.70
2019-05-05T16:25:46.377Z,38.01
2019-05-05T16:28:11.840Z,37.29
2019-05-05T16:30:39.487Z,36.94
2019-05-05T16:33:07.156Z,37.32
2019-05-05T16:35:34.826Z,35.89
2019-05-05T16:38:03.836Z,35.80
2019-05-05T16:40:33.761Z,36.71
2019-05-05T16:43:01.226Z,36.75
2019-05-05T16:45:28.912Z,35.32
2019-05-05T16:47:56.548Z,34.93
2019-05-05T16:50:25.106Z,35.57
2019-05-05T16:52:58.958Z,35.16
2019-05-05T16:55:34.476Z,35.19
2019-05-05T16:58:04.067Z,34.91
2019-05-05T17:00:34.425Z,34.59
2019-05-05T17:03:04.066Z,34.60
2019-05-05T17:05:31.318Z,34.43
2019-05-05T17:07:58.977Z,35.02
2019-05-05T17:10:26.637Z,34.44
2019-05-05T17:12:55.292Z,35.02
2019-05-05T17:15:36.600Z,35.25
2019-05-05T17:18:33.623Z,35.17
2019-05-05T17:21:04.167Z,35.23
2019-05-05T17:23:34.051Z,36.01
2019-05-05T17:26:01.390Z,34.97
2019-05-05T17:28:29.103Z,34.46
2019-05-05T17:30:56.781Z,34.60
2019-05-05T17:33:24.443Z,35.43
2019-05-05T17:35:53.816Z,35.36
2019-05-05T17:38:21.475Z,35.62
2019-05-05T17:40:54.298Z,35.90
2019-05-05T17:43:27.880Z,35.91
2019-05-05T17:45:59.088Z,35.34
2019-05-05T17:48:33.015Z,35.07
2019-05-05T17:51:08.240Z,36.25
2019-05-05T17:53:49.644Z,36.11
2019-05-05T17:56:17.310Z,35.99
2019-05-05T17:58:44.965Z,36.82
2019-05-05T18:01:12.648Z,37.40
2019-05-05T18:03:40.319Z,37.69
2019-05-05T18:06:29.944Z,37.58
2019-05-05T18:09:02.315Z,37.09
2019-05-05T18:11:39.780Z,37.89
2019-05-05T18:14:12.320Z,38.29
2019-05-05T18:16:40.112Z,39.20
2019-05-05T18:19:07.791Z,38.41
2019-05-05T18:21:35.464Z,39.05
2019-05-05T18:24:03.133Z,40.03
2019-05-05T18:26:30.784Z,40.45
2019-05-05T18:28:58.564Z,40.95
2019-05-05T18:31:26.280Z,42.03
2019-05-05T18:33:54.464Z,42.62
2019-05-05T18:36:22.268Z,42.79
2019-05-05T18:38:49.931Z,43.41
2019-05-05T18:41:24.220Z,43.35
2019-05-05T18:43:59.127Z,43.96
2019-05-05T18:46:26.787Z,44.78
2019-05-05T18:48:54.590Z,45.14
2019-05-05T18:51:24.101Z,45.52
2019-05-05T18:53:51.952Z,45.76
2019-05-05T18:56:19.617Z,46.48
2019-05-05T18:58:47.276Z,46.78
2019-05-05T19:01:34.827Z,48.72
2019-05-05T19:04:07.763Z,48.66
2019-05-05T19:06:40.663Z,49.10
2019-05-05T19:09:09.915Z,49.75
2019-05-05T19:11:37.580Z,50.21
2019-05-05T19:14:05.244Z,50.19
2019-05-05T19:16:34.641Z,50.04
2019-05-05T19:19:03.665Z,49.04
2019-05-05T19:21:35.972Z,50.07
2019-05-05T19:24:03.930Z,49.93
2019-05-05T19:26:33.642Z,50.34
2019-05-05T19:29:04.380Z,50.55
2019-05-05T19:31:32.087Z,50.95
2019-05-05T19:33:59.881Z,51.36
2019-05-05T19:36:27.636Z,51.95
2019-05-05T19:38:55.375Z,52.10
2019-05-05T19:41:23.769Z,52.06
2019-05-05T19:43:54.596Z,51.74
2019-05-05T19:46:23.497Z,52.09
2019-05-05T19:48:52.868Z,52.22
2019-05-05T19:51:20.519Z,51.96
2019-05-05T19:53:48.175Z,50.99
2019-05-05T19:56:15.827Z,50.53
2019-05-05T19:58:57.618Z,50.13
2019-05-05T20:01:12.868Z,50.67
2019-05-05T20:03:40.673Z,50.54
2019-05-05T20:06:08.551Z,51.01
2019-05-05T20:08:40.772Z,50.94
2019-05-05T20:11:05.579Z,51.42
2019-05-05T20:13:33.224Z,51.37
2019-05-05T20:16:08.478Z,51.98
2019-05-05T20:18:36.134Z,51.92
2019-05-05T20:21:06.838Z,51.85
2019-05-05T20:23:34.035Z,51.54
2019-05-05T20:26:04.066Z,51.14
2019-05-05T20:28:33.719Z,51.12
2019-05-05T20:31:00.708Z,50.64
2019-05-05T20:33:34.219Z,50.80
2019-05-05T20:36:04.891Z,50.60
2019-05-05T20:38:35.249Z,50.68
2019-05-05T20:41:08.137Z,50.57
2019-05-05T20:43:35.880Z,50.75
2019-05-05T21:00:39.580Z,51.46
2019-05-05T21:03:07.257Z,51.94
2019-05-05T21:05:34.904Z,52.10
2019-05-05T21:08:04.481Z,53.67
2019-05-05T21:10:31.956Z,54.59
2019-05-05T21:12:59.713Z,54.60
2019-05-05T21:15:27.368Z,54.72
2019-05-05T21:17:55.051Z,54.54
2019-05-05T21:20:24.152Z,55.30
2019-05-05T21:22:57.394Z,56.19
2019-05-05T21:25:28.813Z,56.69
2019-05-05T21:27:56.765Z,57.07
2019-05-05T21:30:24.475Z,56.80
2019-05-05T21:32:54.473Z,56.95
2019-05-05T21:35:23.870Z,57.63
2019-05-05T21:37:50.859Z,57.48
2019-05-05T21:40:19.702Z,57.23
2019-05-05T21:42:47.361Z,57.69
2019-05-05T21:45:15.197Z,57.73
2019-05-05T21:47:44.184Z,58.13
2019-05-05T21:50:14.414Z,58.15
2019-05-05T21:52:47.206Z,58.98
2019-05-05T21:55:24.422Z,59.03
2019-05-05T21:57:58.240Z,59.27
2019-05-05T22:00:31.089Z,59.39
2019-05-05T22:02:59.629Z,59.13
2019-05-05T22:05:27.287Z,59.23
2019-05-05T22:07:54.968Z,59.64
2019-05-05T22:10:24.464Z,60.19
2019-05-05T22:12:54.114Z,60.43
2019-05-05T22:15:21.356Z,59.89
2019-05-05T22:17:49.147Z,60.11
2019-05-05T22:20:23.280Z,60.18
2019-05-05T22:22:51.119Z,60.18
2019-05-05T22:25:18.771Z,60.10
2019-05-05T22:27:46.534Z,60.06
2019-05-05T22:30:14.326Z,59.79
2019-05-05T22:32:43.965Z,60.13
2019-05-05T22:35:11.391Z,60.24
2019-05-05T22:37:39.048Z,59.95
2019-05-05T22:40:06.705Z,59.56
2019-05-05T22:42:34.356Z,59.52
2019-05-05T22:45:02.013Z,60.54
2019-05-05T22:47:29.664Z,60.57
2019-05-05T22:49:57.332Z,60.21
2019-05-05T22:52:25.539Z,60.36
2019-05-05T22:54:53.339Z,60.45
2019-05-05T22:57:20.983Z,60.36
2019-05-05T22:59:48.647Z,60.21
2019-05-05T23:02:17.956Z,60.24
2019-05-05T23:04:54.555Z,60.45
2019-05-05T23:07:28.125Z,60.42
2019-05-05T23:09:55.787Z,60.93
2019-05-05T23:12:24.423Z,61.56
2019-05-05T23:14:54.340Z,61.20
2019-05-05T23:17:34.183Z,61.74
2019-05-05T23:20:13.478Z,61.71
2019-05-05T23:22:47.829Z,61.48
2019-05-05T23:25:24.007Z,61.24
2019-05-05T23:27:51.409Z,61.06
2019-05-05T23:30:19.465Z,61.82
2019-05-05T23:32:47.170Z,62.02
2019-05-05T23:35:14.839Z,61.89
2019-05-05T23:37:42.947Z,62.48
2019-05-05T23:40:11.861Z,61.82
2019-05-05T23:42:39.509Z,61.97
2019-05-05T23:45:07.170Z,62.28
2019-05-05T23:47:34.835Z,62.24
2019-05-05T23:50:04.386Z,62.80
2019-05-05T23:52:31.876Z,62.60
2019-05-05T23:54:59.536Z,62.46
2019-05-05T23:57:27.200Z,62.58
2019-05-05T23:59:55.112Z,63.31
